Time;durP1;ratioP1;P1;durP2;ratioP2;P2;SDS_P1;SDS_P2;PMS_P1;PMS_P2;Temp;Humidity;BMP_temperature;BMP_pressure;BME280_temperature;BME280_humidity;BME280_pressure;Samples;Min_cycle;Max_cycle;Signal;HPM_P1;HPM_P2
2023/08/08 00:01:30;;;;;;;10.25;3.13;;;12.80;99.90;;;;;;5010412;28;20080;-47
2023/08/08 00:03:56;;;;;;;5.00;2.53;;;12.80;99.90;;;;;;5009880;28;20396;-48
2023/08/08 00:06:21;;;;;;;8.48;2.80;;;12.80;99.90;;;;;;5010585;28;20432;-47
2023/08/08 00:08:46;;;;;;;9.02;2.80;;;12.80;99.90;;;;;;5013365;28;20471;-49
2023/08/08 00:11:12;;;;;;;8.68;2.60;;;12.80;99.90;;;;;;5014777;28;20071;-45
2023/08/08 00:13:37;;;;;;;5.38;2.00;;;12.80;99.90;;;;;;5013729;28;20052;-49
2023/08/08 00:16:03;;;;;;;6.68;3.33;;;12.80;99.90;;;;;;5014370;28;20029;-48
2023/08/08 00:18:29;;;;;;;10.63;3.50;;;12.70;99.90;;;;;;5014163;28;20025;-48
2023/08/08 00:20:54;;;;;;;8.45;2.58;;;12.80;99.90;;;;;;5014400;28;20018;-46
2023/08/08 00:23:20;;;;;;;4.63;2.53;;;12.70;99.90;;;;;;5013866;28;20018;-46
2023/08/08 00:25:49;;;;;;;6.45;2.47;;;12.70;99.90;;;;;;5014199;28;20436;-47
2023/08/08 00:28:15;;;;;;;8.10;2.60;;;12.70;99.90;;;;;;4996349;28;20026;-48
2023/08/08 00:30:41;;;;;;;6.95;2.58;;;12.70;99.90;;;;;;5014014;28;20022;-46
2023/08/08 00:33:06;;;;;;;3.40;2.30;;;12.60;99.90;;;;;;5013604;28;20105;-46
2023/08/08 00:35:32;;;;;;;6.18;2.30;;;12.70;99.90;;;;;;5013745;28;20018;-48
2023/08/08 00:37:57;;;;;;;4.95;2.30;;;12.70;99.90;;;;;;4996185;28;20056;-48
2023/08/08 00:40:23;;;;;;;6.88;3.15;;;12.70;99.90;;;;;;4996217;28;20033;-46
2023/08/08 00:42:48;;;;;;;8.98;2.78;;;12.70;99.90;;;;;;4995852;28;20032;-46
2023/08/08 00:45:14;;;;;;;6.82;2.70;;;12.60;99.90;;;;;;5013424;28;20468;-49
2023/08/08 00:47:39;;;;;;;4.82;2.88;;;12.60;99.90;;;;;;4996118;28;20037;-46
2023/08/08 00:50:05;;;;;;;5.03;2.50;;;12.70;99.90;;;;;;5013690;28;20144;-46
2023/08/08 00:52:32;;;;;;;5.43;2.30;;;12.70;99.90;;;;;;5013504;28;20044;-49
2023/08/08 00:54:57;;;;;;;4.85;2.85;;;12.60;99.90;;;;;;5013191;28;20026;-47
2023/08/08 00:57:23;;;;;;;7.10;2.75;;;12.60;99.90;;;;;;4995885;28;20030;-48
2023/08/08 00:59:49;;;;;;;6.72;2.85;;;12.60;99.90;;;;;;4996054;28;20021;-48
2023/08/08 01:02:14;;;;;;;5.05;2.80;;;12.60;99.90;;;;;;4995657;28;20057;-46
2023/08/08 01:04:40;;;;;;;3.97;2.60;;;12.60;99.90;;;;;;4995348;28;20054;-49
2023/08/08 01:07:28;;;;;;;6.57;2.30;;;12.60;99.90;;;;;;5013441;28;20022;-47
2023/08/08 01:10:18;;;;;;;5.78;2.42;;;12.60;99.90;;;;;;5013321;28;20025;-46
2023/08/08 01:12:48;;;;;;;9.93;3.15;;;12.60;99.90;;;;;;4995492;28;20109;-46
2023/08/08 01:15:15;;;;;;;9.27;3.08;;;12.60;99.90;;;;;;5013230;28;20033;-45
2023/08/08 01:17:43;;;;;;;8.07;3.03;;;12.60;99.90;;;;;;5013049;28;20044;-49
2023/08/08 01:20:10;;;;;;;6.13;2.70;;;12.60;99.90;;;;;;5012657;28;20084;-47
2023/08/08 01:22:39;;;;;;;8.52;3.30;;;12.60;99.90;;;;;;5013006;28;20376;-46
2023/08/08 01:25:06;;;;;;;15.75;3.17;;;12.60;99.90;;;;;;4995009;28;20046;-47
2023/08/08 01:27:32;;;;;;;5.70;3.10;;;12.60;99.90;;;;;;5012979;28;20022;-46
2023/08/08 01:29:57;;;;;;;7.40;3.30;;;12.60;99.90;;;;;;5013094;28;20022;-46
2023/08/08 01:32:23;;;;;;;10.82;3.25;;;12.60;99.90;;;;;;5013007;28;20073;-46
2023/08/08 01:34:48;;;;;;;4.97;2.67;;;12.50;99.90;;;;;;5012525;28;20038;-46
2023/08/08 01:37:32;;;;;;;7.05;3.00;;;12.50;99.90;;;;;;4995252;28;20030;-49
2023/08/08 01:40:00;;;;;;;7.95;3.20;;;12.50;99.90;;;;;;5012958;28;20049;-47
2023/08/08 01:42:26;;;;;;;12.38;3.75;;;12.50;99.90;;;;;;5012679;28;20053;-47
2023/08/08 01:44:53;;;;;;;7.90;3.55;;;12.50;99.90;;;;;;5012261;28;20018;-46
2023/08/08 01:47:19;;;;;;;6.05;3.20;;;12.50;99.90;;;;;;5012580;28;20202;-46
2023/08/08 01:49:44;;;;;;;6.50;3.05;;;12.50;99.90;;;;;;5012598;28;20095;-48
2023/08/08 01:52:10;;;;;;;6.88;4.10;;;12.50;99.90;;;;;;5012575;28;20436;-45
2023/08/08 01:54:35;;;;;;;7.45;3.33;;;12.50;99.90;;;;;;5011952;28;20033;-50
2023/08/08 01:57:01;;;;;;;8.85;3.30;;;12.50;99.90;;;;;;5012404;28;20064;-47
2023/08/08 01:59:26;;;;;;;6.43;3.25;;;12.50;99.90;;;;;;4994795;28;20105;-47
2023/08/08 02:01:52;;;;;;;8.70;3.45;;;12.50;99.90;;;;;;5012767;28;20055;-48
2023/08/08 02:04:17;;;;;;;10.70;3.70;;;12.50;99.90;;;;;;5011676;28;20095;-46
2023/08/08 02:06:43;;;;;;;7.65;3.30;;;12.50;99.90;;;;;;5012325;28;20478;-46
2023/08/08 02:09:08;;;;;;;11.30;4.13;;;12.50;99.90;;;;;;5012587;28;20041;-47
2023/08/08 02:11:34;;;;;;;8.15;3.30;;;12.60;99.90;;;;;;5012563;28;20029;-47
2023/08/08 02:13:59;;;;;;;6.00;2.92;;;12.60;99.90;;;;;;5012323;28;20022;-49
2023/08/08 02:16:25;;;;;;;7.10;3.00;;;12.60;99.90;;;;;;5012154;28;20026;-47
2023/08/08 02:18:50;;;;;;;4.00;3.38;;;12.60;99.90;;;;;;5012403;28;20720;-47
2023/08/08 02:21:16;;;;;;;6.13;3.42;;;12.60;99.90;;;;;;5012068;28;20022;-47
2023/08/08 02:23:41;;;;;;;7.25;3.38;;;12.60;99.90;;;;;;5011488;28;20512;-48
2023/08/08 02:26:07;;;;;;;10.00;3.05;;;12.60;99.90;;;;;;5011912;28;20032;-47
2023/08/08 02:28:33;;;;;;;5.47;3.35;;;12.60;99.90;;;;;;5011787;28;20030;-47
2023/08/08 02:30:58;;;;;;;6.70;3.20;;;12.50;99.90;;;;;;5010821;28;20469;-47
2023/08/08 02:33:24;;;;;;;6.88;3.28;;;12.50;99.90;;;;;;5011236;28;20033;-47
2023/08/08 02:35:49;;;;;;;13.45;3.28;;;12.50;99.90;;;;;;5011853;28;20028;-48
2023/08/08 02:38:14;;;;;;;5.28;3.10;;;12.50;99.90;;;;;;5011662;28;20018;-47
2023/08/08 02:40:40;;;;;;;4.10;2.83;;;12.50;99.90;;;;;;5012099;28;20022;-46
2023/08/08 02:43:06;;;;;;;5.97;3.78;;;12.50;99.90;;;;;;5011362;28;20492;-48
2023/08/08 02:45:31;;;;;;;9.13;4.38;;;12.50;99.90;;;;;;5011164;28;20384;-47
2023/08/08 02:47:57;;;;;;;6.60;3.70;;;12.50;99.90;;;;;;5011541;28;20026;-47
2023/08/08 02:50:22;;;;;;;6.40;3.45;;;12.50;99.90;;;;;;5011416;28;20026;-49
2023/08/08 02:52:49;;;;;;;5.68;3.55;;;12.50;99.90;;;;;;4993613;28;20018;-48
2023/08/08 02:55:15;;;;;;;6.30;3.40;;;12.50;99.90;;;;;;5011074;28;20493;-46
2023/08/08 02:57:40;;;;;;;6.57;3.30;;;12.50;99.90;;;;;;5011296;28;20026;-47
2023/08/08 03:00:08;;;;;;;7.45;3.83;;;12.50;99.90;;;;;;5011224;28;20018;-45
2023/08/08 03:02:33;;;;;;;6.07;3.20;;;12.50;99.90;;;;;;5011030;28;20496;-46
2023/08/08 03:04:59;;;;;;;10.45;3.40;;;12.50;99.90;;;;;;5010825;28;20026;-47
2023/08/08 03:07:24;;;;;;;8.82;4.35;;;12.50;99.90;;;;;;5011498;28;20040;-48
2023/08/08 03:09:50;;;;;;;6.70;3.22;;;12.50;99.90;;;;;;5011247;28;20026;-47
2023/08/08 03:12:15;;;;;;;7.38;4.00;;;12.60;99.90;;;;;;4993612;28;20014;-46
2023/08/08 03:14:41;;;;;;;8.02;3.97;;;12.60;99.90;;;;;;5010405;28;20088;-47
2023/08/08 03:17:06;;;;;;;5.70;3.50;;;12.60;99.90;;;;;;5011094;28;20045;-45
2023/08/08 03:19:32;;;;;;;8.65;4.20;;;12.60;99.90;;;;;;5011266;28;20500;-49
2023/08/08 03:21:57;;;;;;;9.40;3.83;;;12.70;99.90;;;;;;5011232;28;20018;-48
2023/08/08 03:24:23;;;;;;;9.93;4.30;;;12.70;99.90;;;;;;5010797;28;20465;-47
2023/08/08 03:26:48;;;;;;;9.35;3.92;;;12.70;99.90;;;;;;5010968;28;20485;-49
2023/08/08 03:29:14;;;;;;;11.45;4.57;;;12.70;99.90;;;;;;5010753;28;20026;-48
2023/08/08 03:31:39;;;;;;;7.07;4.00;;;12.70;99.90;;;;;;5010492;28;20045;-46
2023/08/08 03:34:05;;;;;;;6.75;4.32;;;12.70;99.90;;;;;;5010207;28;20030;-48
2023/08/08 03:36:31;;;;;;;12.23;4.57;;;12.70;99.90;;;;;;5010730;28;20274;-47
2023/08/08 03:38:57;;;;;;;5.70;4.68;;;12.70;99.90;;;;;;4993236;28;20042;-48
2023/08/08 03:41:23;;;;;;;12.48;4.82;;;12.70;99.90;;;;;;5010460;28;20032;-46
2023/08/08 03:43:48;;;;;;;13.90;4.10;;;12.80;99.90;;;;;;4992450;28;20469;-47
2023/08/08 03:46:14;;;;;;;9.73;4.28;;;12.80;99.90;;;;;;5010496;28;20492;-46
2023/08/08 03:48:39;;;;;;;8.38;3.92;;;12.80;99.90;;;;;;5010691;28;20036;-46
2023/08/08 03:51:06;;;;;;;9.10;5.00;;;12.80;99.90;;;;;;5010505;28;20032;-49
2023/08/08 03:53:32;;;;;;;8.10;4.63;;;12.90;99.90;;;;;;5009898;28;20076;-49
2023/08/08 03:55:57;;;;;;;7.18;4.20;;;12.80;99.90;;;;;;5010477;28;20034;-46
2023/08/08 03:58:23;;;;;;;7.93;4.68;;;12.90;99.90;;;;;;4992748;28;20034;-46
2023/08/08 04:00:49;;;;;;;9.52;5.18;;;12.90;99.90;;;;;;4992662;28;20030;-45
2023/08/08 04:03:15;;;;;;;8.15;3.83;;;12.90;99.90;;;;;;5010198;28;20030;-46
2023/08/08 04:05:46;;;;;;;9.65;4.82;;;13.00;99.90;;;;;;5010268;28;20018;-46
2023/08/08 04:08:11;;;;;;;;;;;13.00;99.90;;;;;;5010827;28;20155;-46
2023/08/08 04:10:37;;;;;;;11.23;5.10;;;13.00;99.90;;;;;;4992605;28;20000;-47
2023/08/08 04:13:02;;;;;;;8.65;4.53;;;13.10;99.90;;;;;;5009931;28;20120;-46
2023/08/08 04:15:28;;;;;;;11.25;4.78;;;13.10;99.90;;;;;;5009891;28;20239;-46
2023/08/08 04:17:53;;;;;;;6.97;3.55;;;13.20;99.90;;;;;;5010152;28;20030;-50
2023/08/08 04:20:19;;;;;;;9.65;4.25;;;13.20;99.90;;;;;;5010099;28;20026;-46
2023/08/08 04:22:45;;;;;;;7.85;4.43;;;13.10;99.90;;;;;;5009954;28;20417;-46
2023/08/08 04:25:10;;;;;;;9.57;4.63;;;13.20;99.90;;;;;;5009964;28;20368;-47
2023/08/08 04:27:36;;;;;;;8.85;4.88;;;13.30;99.90;;;;;;5009944;28;20026;-48
2023/08/08 04:30:03;;;;;;;8.13;4.50;;;13.30;99.90;;;;;;5010247;28;20112;-48
2023/08/08 04:32:28;;;;;;;7.72;3.67;;;13.30;99.90;;;;;;5009813;28;20033;-47
2023/08/08 04:34:54;;;;;;;8.48;4.65;;;13.30;99.90;;;;;;5009593;28;20030;-46
2023/08/08 04:37:19;;;;;;;6.20;3.88;;;13.40;99.90;;;;;;5010005;28;20097;-49
2023/08/08 04:39:45;;;;;;;8.05;4.05;;;13.30;99.90;;;;;;5010158;28;20224;-49
2023/08/08 04:42:10;;;;;;;7.00;3.72;;;13.40;99.90;;;;;;5010442;28;20026;-46
2023/08/08 04:44:36;;;;;;;12.98;4.43;;;13.40;99.90;;;;;;5009452;28;20018;-47
2023/08/08 04:47:01;;;;;;;14.27;4.60;;;13.40;99.90;;;;;;5010106;28;20054;-45
2023/08/08 04:49:28;;;;;;;7.80;3.90;;;13.50;99.90;;;;;;5010110;28;20029;-47
2023/08/08 04:51:54;;;;;;;13.35;4.97;;;13.50;99.90;;;;;;5010027;28;20041;-46
2023/08/08 04:54:19;;;;;;;7.40;4.30;;;13.50;99.90;;;;;;5011520;28;20053;-46
2023/08/08 04:56:45;;;;;;;7.70;4.18;;;13.60;99.90;;;;;;5013506;28;20113;-45
2023/08/08 04:59:10;;;;;;;5.70;3.80;;;13.60;99.90;;;;;;4995990;28;20436;-45
2023/08/08 05:01:36;;;;;;;8.32;4.32;;;13.60;99.90;;;;;;5013408;28;20025;-46
2023/08/08 05:04:01;;;;;;;9.77;4.22;;;13.60;99.90;;;;;;5012898;28;20129;-46
2023/08/08 05:06:27;;;;;;;6.65;4.28;;;13.70;99.90;;;;;;5013453;28;20204;-48
2023/08/08 05:08:53;;;;;;;13.25;4.10;;;13.70;99.90;;;;;;5013539;28;20029;-46
2023/08/08 05:11:18;;;;;;;7.10;4.15;;;13.70;99.90;;;;;;5013351;28;20052;-48
2023/08/08 05:13:45;;;;;;;6.53;4.22;;;13.70;99.90;;;;;;5012535;28;20040;-49
2023/08/08 05:16:10;;;;;;;7.13;4.10;;;13.70;99.90;;;;;;5013443;28;20382;-48
2023/08/08 05:18:36;;;;;;;9.77;3.95;;;13.80;99.90;;;;;;5013168;28;20029;-47
2023/08/08 05:21:02;;;;;;;8.88;4.40;;;13.80;99.90;;;;;;5013117;28;20014;-46
2023/08/08 05:23:27;;;;;;;7.97;3.88;;;13.80;99.90;;;;;;5012537;28;20417;-49
2023/08/08 05:25:53;;;;;;;6.60;4.20;;;13.90;99.90;;;;;;5013290;28;20485;-46
2023/08/08 05:28:18;;;;;;;8.98;3.63;;;13.90;99.90;;;;;;5012954;28;20539;-48
2023/08/08 05:30:44;;;;;;;9.60;3.60;;;14.00;99.90;;;;;;5013034;28;20034;-47
2023/08/08 05:33:09;;;;;;;6.00;3.78;;;14.00;99.90;;;;;;5012461;28;20037;-46
2023/08/08 05:35:35;;;;;;;6.60;3.63;;;14.10;99.90;;;;;;5012731;28;20507;-49
2023/08/08 05:38:01;;;;;;;5.82;3.78;;;14.10;99.90;;;;;;4995214;28;20105;-46
2023/08/08 05:40:26;;;;;;;5.05;3.47;;;14.10;99.90;;;;;;5012794;28;20096;-46
2023/08/08 05:42:51;;;;;;;5.20;3.25;;;14.20;99.90;;;;;;5012871;28;20018;-46
2023/08/08 05:45:17;;;;;;;8.55;3.50;;;14.30;99.90;;;;;;5012518;28;20096;-46
2023/08/08 05:47:43;;;;;;;6.20;3.15;;;14.30;99.90;;;;;;5012649;28;20485;-46
2023/08/08 05:50:08;;;;;;;4.95;3.35;;;14.40;99.90;;;;;;5012608;28;20030;-46
2023/08/08 05:52:34;;;;;;;11.35;4.05;;;14.40;99.90;;;;;;5012472;28;20112;-47
2023/08/08 05:54:59;;;;;;;7.28;3.30;;;14.50;99.90;;;;;;5012162;28;20022;-48
2023/08/08 05:57:26;;;;;;;10.30;3.92;;;14.60;99.90;;;;;;5012233;28;20091;-50
2023/08/08 05:59:51;;;;;;;5.75;3.28;;;14.60;99.90;;;;;;5012486;28;20033;-49
2023/08/08 06:02:17;;;;;;;6.97;3.60;;;14.60;99.90;;;;;;4994743;28;20014;-50
2023/08/08 06:04:43;;;;;;;5.88;3.15;;;14.60;99.90;;;;;;5010964;28;20018;-48
2023/08/08 06:07:09;;;;;;;8.13;3.60;;;14.60;99.90;;;;;;5011890;28;20029;-46
2023/08/08 06:09:36;;;;;;;5.65;3.25;;;14.60;99.90;;;;;;5012198;28;20036;-47
2023/08/08 06:12:02;;;;;;;5.55;3.55;;;14.70;99.90;;;;;;5012066;28;20161;-46
2023/08/08 06:14:28;;;;;;;7.72;3.42;;;14.70;99.90;;;;;;5011639;28;20101;-46
2023/08/08 06:16:54;;;;;;;6.43;3.50;;;14.70;99.90;;;;;;5012155;28;20026;-46
2023/08/08 06:19:19;;;;;;;8.43;3.47;;;14.70;99.90;;;;;;5012208;28;20010;-49
2023/08/08 06:21:46;;;;;;;7.57;3.40;;;14.80;99.90;;;;;;4994477;28;20116;-51
2023/08/08 06:24:11;;;;;;;10.60;3.50;;;14.80;99.90;;;;;;5011571;28;20101;-46
2023/08/08 06:26:37;;;;;;;11.93;3.60;;;14.90;99.90;;;;;;5011645;28;20100;-46
2023/08/08 06:29:03;;;;;;;6.93;3.50;;;15.00;99.90;;;;;;5011970;28;20030;-47
2023/08/08 06:31:29;;;;;;;7.25;3.50;;;15.10;99.90;;;;;;5011820;28;20030;-47
2023/08/08 06:33:54;;;;;;;8.35;3.40;;;15.20;99.90;;;;;;5011407;28;20695;-47
2023/08/08 06:36:20;;;;;;;6.93;3.25;;;15.30;99.90;;;;;;5011866;28;20072;-47
2023/08/08 06:38:45;;;;;;;5.90;3.30;;;15.30;99.90;;;;;;4994210;28;20026;-46
2023/08/08 06:41:11;;;;;;;3.90;3.40;;;15.30;99.90;;;;;;5011989;28;20444;-47
2023/08/08 06:43:36;;;;;;;8.73;3.78;;;15.40;99.90;;;;;;5011415;28;20388;-47
2023/08/08 06:46:02;;;;;;;5.05;3.53;;;15.60;99.90;;;;;;5011823;28;20436;-46
2023/08/08 06:48:27;;;;;;;8.63;3.50;;;15.70;99.90;;;;;;5011789;28;20030;-46
2023/08/08 06:50:53;;;;;;;6.68;3.38;;;15.80;99.90;;;;;;4994429;28;20018;-50
2023/08/08 06:53:18;;;;;;;4.55;2.97;;;16.00;99.90;;;;;;5011227;28;20677;-50
2023/08/08 06:55:44;;;;;;;6.63;3.97;;;16.00;99.90;;;;;;5011365;28;20037;-49
2023/08/08 06:58:09;;;;;;;6.47;3.72;;;16.10;99.90;;;;;;5011455;28;20030;-49
2023/08/08 07:00:35;;;;;;;6.82;3.10;;;16.20;99.90;;;;;;5011350;28;20014;-47
2023/08/08 07:03:00;;;;;;;5.38;3.53;;;16.30;99.90;;;;;;5011100;28;20014;-47
2023/08/08 07:05:26;;;;;;;5.70;3.97;;;16.30;99.90;;;;;;5011089;28;20018;-46
2023/08/08 07:07:52;;;;;;;7.25;3.40;;;16.40;99.90;;;;;;5011492;28;20025;-47
2023/08/08 07:10:18;;;;;;;7.97;3.85;;;16.30;99.90;;;;;;5011741;28;20080;-47
2023/08/08 07:12:44;;;;;;;9.25;4.25;;;16.40;99.90;;;;;;5011136;28;20389;-48
2023/08/08 07:15:10;;;;;;;7.03;3.80;;;16.30;99.90;;;;;;4993650;28;20359;-46
2023/08/08 07:17:36;;;;;;;7.43;4.00;;;16.30;99.90;;;;;;5010784;28;20431;-48
2023/08/08 07:20:02;;;;;;;9.75;3.58;;;16.40;99.90;;;;;;5011202;28;20089;-50
2023/08/08 07:22:27;;;;;;;11.57;4.15;;;16.50;99.90;;;;;;4993428;28;20421;-47
2023/08/08 07:24:53;;;;;;;13.90;4.40;;;16.70;99.90;;;;;;5010551;28;20033;-48
2023/08/08 07:27:19;;;;;;;9.68;3.95;;;16.70;99.90;;;;;;5010936;28;20026;-47
2023/08/08 07:29:44;;;;;;;7.88;4.15;;;16.70;99.90;;;;;;5010846;28;20034;-49
2023/08/08 07:32:10;;;;;;;10.95;4.15;;;16.70;99.90;;;;;;5010654;28;20030;-47
2023/08/08 07:34:36;;;;;;;6.22;3.55;;;16.80;99.90;;;;;;5010286;28;20105;-48
2023/08/08 07:37:03;;;;;;;9.18;3.70;;;16.80;99.90;;;;;;5010684;28;20030;-48
2023/08/08 07:39:28;;;;;;;12.30;3.60;;;16.90;99.90;;;;;;5010551;28;20025;-48
2023/08/08 07:41:54;;;;;;;7.47;3.60;;;16.90;99.90;;;;;;4993104;28;20527;-49
2023/08/08 07:44:20;;;;;;;8.18;4.00;;;17.00;99.90;;;;;;4992537;28;20404;-54
2023/08/08 07:46:45;;;;;;;6.60;3.83;;;17.00;99.90;;;;;;5010815;28;20037;-47
2023/08/08 07:49:11;;;;;;;11.32;3.63;;;17.00;99.90;;;;;;5011116;28;20369;-47
2023/08/08 07:51:36;;;;;;;7.93;3.85;;;17.20;99.90;;;;;;5010864;28;20396;-46
2023/08/08 07:54:02;;;;;;;9.85;3.45;;;17.00;99.90;;;;;;5010083;28;20049;-48
2023/08/08 07:56:28;;;;;;;11.15;3.92;;;17.00;99.90;;;;;;5010452;28;20101;-47
2023/08/08 07:58:53;;;;;;;14.13;4.00;;;17.10;99.90;;;;;;5010376;28;20021;-46
2023/08/08 08:01:19;;;;;;;5.78;3.10;;;17.10;99.90;;;;;;5010634;28;20036;-46
2023/08/08 08:03:45;;;;;;;7.28;3.28;;;17.20;99.90;;;;;;5009774;28;20022;-46
2023/08/08 08:06:12;;;;;;;11.32;4.18;;;17.40;99.90;;;;;;5010305;28;20021;-47
2023/08/08 08:08:37;;;;;;;5.45;3.05;;;17.50;99.90;;;;;;4992637;28;20041;-46
2023/08/08 08:11:03;;;;;;;4.25;2.80;;;17.80;99.90;;;;;;5010413;28;20461;-46
2023/08/08 08:13:29;;;;;;;5.15;2.85;;;18.00;99.90;;;;;;4992134;28;20499;-44
2023/08/08 08:15:54;;;;;;;8.45;4.03;;;18.30;99.90;;;;;;5009902;28;20026;-44
2023/08/08 08:18:20;;;;;;;4.75;3.20;;;18.30;99.90;;;;;;5010395;28;20036;-45
2023/08/08 08:20:46;;;;;;;4.88;3.42;;;18.20;99.90;;;;;;5010203;28;20114;-44
2023/08/08 08:23:12;;;;;;;5.63;3.38;;;18.00;99.90;;;;;;5009688;28;20022;-46
2023/08/08 08:25:37;;;;;;;7.78;3.03;;;18.00;99.90;;;;;;5010147;28;20392;-47
2023/08/08 08:28:03;;;;;;;4.82;3.13;;;18.20;99.90;;;;;;5010214;28;20026;-46
2023/08/08 08:30:29;;;;;;;11.77;3.10;;;18.60;99.90;;;;;;5014109;28;20101;-47
2023/08/08 08:32:54;;;;;;;6.60;2.63;;;19.00;99.90;;;;;;5013777;28;20041;-46
2023/08/08 08:35:20;;;;;;;5.70;2.40;;;18.80;99.90;;;;;;5013842;28;20436;-46
2023/08/08 08:37:46;;;;;;;6.80;2.80;;;18.50;99.90;;;;;;5013748;28;20058;-48
2023/08/08 08:40:12;;;;;;;2.70;2.20;;;18.50;99.90;;;;;;5014143;28;20488;-49
2023/08/08 08:42:40;;;;;;;5.80;2.17;;;19.60;99.90;;;;;;4996117;28;20022;-46
2023/08/08 08:45:08;;;;;;;3.75;2.60;;;21.00;99.90;;;;;;5013568;28;20010;-47
2023/08/08 08:47:36;;;;;;;4.47;2.10;;;22.00;97.40;;;;;;5013740;28;20021;-47
2023/08/08 08:50:03;;;;;;;7.78;2.58;;;21.80;96.10;;;;;;5013774;28;20101;-47
2023/08/08 08:52:29;;;;;;;8.32;2.60;;;21.50;95.70;;;;;;5013596;28;20026;-46
2023/08/08 08:54:55;;;;;;;4.22;2.67;;;20.70;96.40;;;;;;5013300;28;20189;-47
2023/08/08 08:57:23;;;;;;;8.40;2.50;;;20.20;97.60;;;;;;5013530;28;20045;-48
2023/08/08 08:59:50;;;;;;;3.53;2.25;;;19.90;98.20;;;;;;5013548;28;20223;-46
2023/08/08 09:02:17;;;;;;;6.32;2.22;;;19.70;97.70;;;;;;4995857;28;20024;-46
2023/08/08 09:04:45;;;;;;;4.47;2.30;;;19.40;97.40;;;;;;5012920;28;20022;-45
2023/08/08 09:07:11;;;;;;;9.48;2.08;;;18.90;97.40;;;;;;4995761;28;20113;-47
2023/08/08 09:09:37;;;;;;;8.40;2.85;;;18.70;97.90;;;;;;5013336;28;20034;-48
2023/08/08 09:12:07;;;;;;;5.45;2.13;;;18.60;98.80;;;;;;5013362;28;20125;-45
2023/08/08 09:14:32;;;;;;;6.30;2.30;;;18.60;99.40;;;;;;5012853;28;20539;-46
2023/08/08 09:16:58;;;;;;;3.58;2.40;;;18.40;99.20;;;;;;5005166;28;20117;-46
2023/08/08 09:19:24;;;;;;;4.90;2.67;;;18.30;99.90;;;;;;4995483;28;20026;-46
2023/08/08 09:21:52;;;;;;;4.55;2.58;;;18.10;99.90;;;;;;4995384;28;20025;-47
2023/08/08 09:24:18;;;;;;;7.18;2.42;;;18.00;99.90;;;;;;4994922;28;20022;-49
2023/08/08 09:26:44;;;;;;;3.50;1.92;;;18.10;99.90;;;;;;5013007;28;20092;-47
2023/08/08 09:29:11;;;;;;;4.80;2.55;;;18.40;99.90;;;;;;5012983;28;20025;-49
2023/08/08 09:31:37;;;;;;;4.30;1.63;;;20.00;98.50;;;;;;5012835;28;20040;-49
2023/08/08 09:34:04;;;;;;;5.53;1.88;;;21.70;96.10;;;;;;5012282;28;20018;-47
2023/08/08 09:36:30;;;;;;;3.88;1.70;;;22.20;93.40;;;;;;5012846;28;20076;-49
2023/08/08 09:38:56;;;;;;;5.43;1.98;;;22.20;92.60;;;;;;5012694;28;20259;-47
2023/08/08 09:41:23;;;;;;;4.53;1.67;;;22.40;92.00;;;;;;5012955;28;20504;-47
2023/08/08 09:43:50;;;;;;;3.55;2.10;;;22.20;90.90;;;;;;5012201;28;20022;-48
2023/08/08 09:46:16;;;;;;;4.30;1.77;;;21.70;92.00;;;;;;5012750;28;20022;-49
2023/08/08 09:48:42;;;;;;;5.47;2.03;;;21.50;92.30;;;;;;5013043;28;20033;-49
2023/08/08 09:51:09;;;;;;;4.07;1.63;;;21.30;92.40;;;;;;5012715;28;20491;-47
2023/08/08 09:53:35;;;;;;;3.78;1.58;;;21.80;91.50;;;;;;5012072;28;20326;-47
2023/08/08 09:56:05;;;;;;;6.40;2.03;;;22.80;90.00;;;;;;5012531;28;20022;-49
2023/08/08 09:58:31;;;;;;;3.20;1.70;;;22.40;89.50;;;;;;5012505;28;20061;-48
2023/08/08 10:00:58;;;;;;;6.32;2.08;;;21.80;90.10;;;;;;5012192;28;20480;-48
2023/08/08 10:03:24;;;;;;;3.30;1.70;;;21.40;90.90;;;;;;5011829;28;20431;-46
2023/08/08 10:05:49;;;;;;;5.18;1.65;;;21.20;92.10;;;;;;5012220;28;20026;-46
2023/08/08 10:08:15;;;;;;;3.25;1.92;;;20.80;91.80;;;;;;5012158;28;20026;-48
2023/08/08 10:10:44;;;;;;;5.53;2.08;;;20.30;92.70;;;;;;5012285;28;20022;-47
2023/08/08 10:13:10;;;;;;;3.45;1.98;;;19.70;94.80;;;;;;5012210;28;20025;-50
2023/08/08 10:15:39;;;;;;;7.32;2.28;;;19.10;94.90;;;;;;4994696;28;20038;-46
2023/08/08 10:18:06;;;;;;;2.72;1.77;;;18.40;97.70;;;;;;5012679;28;20032;-46
2023/08/08 10:20:34;;;;;;;4.90;2.38;;;18.20;99.10;;;;;;5012238;28;20018;-46
2023/08/08 10:23:00;;;;;;;4.32;2.28;;;18.10;99.50;;;;;;5012061;28;20063;-46
2023/08/08 10:25:27;;;;;;;4.35;2.15;;;18.00;99.90;;;;;;5011867;28;20056;-48
2023/08/08 10:28:04;;;;;;;4.25;2.50;;;18.10;99.90;;;;;;5011980;28;20025;-46
2023/08/08 10:30:41;;;;;;;3.40;2.30;;;18.20;99.90;;;;;;5011894;28;20018;-46
2023/08/08 10:33:18;;;;;;;6.65;1.98;;;18.30;99.90;;;;;;5011441;28;20246;-45
2023/08/08 10:36:00;;;;;;;5.57;2.40;;;18.50;99.90;;;;;;5011731;28;20021;-46
2023/08/08 10:38:39;;;;;;;4.60;2.70;;;18.80;99.90;;;;;;5011574;28;20017;-46
2023/08/08 10:41:05;;;;;;;4.30;2.30;;;19.60;99.10;;;;;;5011702;28;20022;-45
2023/08/08 10:43:31;;;;;;;7.43;3.15;;;20.60;98.20;;;;;;5011166;28;20030;-47
2023/08/08 10:46:04;;;;;;;7.30;2.28;;;20.50;97.20;;;;;;5011517;28;20022;-46
2023/08/08 10:48:30;;;;;;;5.38;2.55;;;20.10;97.60;;;;;;5011688;28;20022;-46
2023/08/08 10:50:58;;;;;;;8.43;2.70;;;19.70;98.00;;;;;;5010822;28;20042;-48
2023/08/08 10:53:30;;;;;;;3.53;2.25;;;19.40;98.70;;;;;;4993195;28;20029;-48
2023/08/08 10:56:01;;;;;;;4.05;2.10;;;19.20;99.20;;;;;;5011481;28;20049;-47
2023/08/08 10:58:40;;;;;;;8.55;2.90;;;18.70;99.80;;;;;;4993972;28;20033;-47
2023/08/08 11:01:07;;;;;;;6.03;2.85;;;18.50;99.90;;;;;;5011572;28;20442;-47
2023/08/08 11:03:40;;;;;;;3.55;2.47;;;18.10;99.90;;;;;;5010895;28;20021;-46
2023/08/08 11:06:08;;;;;;;5.10;3.00;;;17.70;99.90;;;;;;5011405;28;20080;-46
2023/08/08 11:08:34;;;;;;;9.45;3.40;;;17.40;99.90;;;;;;5011430;28;20504;-48
2023/08/08 11:11:00;;;;;;;6.70;2.85;;;17.30;99.90;;;;;;5011220;28;20022;-46
2023/08/08 11:13:26;;;;;;;5.68;2.95;;;17.20;99.90;;;;;;5010817;28;20033;-47
2023/08/08 11:15:52;;;;;;;6.95;2.83;;;17.20;99.90;;;;;;5011202;28;20029;-47
2023/08/08 11:18:17;;;;;;;6.10;2.50;;;17.20;99.90;;;;;;5010930;28;20100;-48
2023/08/08 11:20:43;;;;;;;5.35;2.65;;;17.00;99.90;;;;;;5010934;28;20050;-46
2023/08/08 11:23:10;;;;;;;4.63;2.30;;;17.10;99.90;;;;;;5010919;28;20014;-47
2023/08/08 11:25:39;;;;;;;3.05;2.55;;;16.90;99.90;;;;;;5010678;28;20022;-48
2023/08/08 11:28:04;;;;;;;3.70;2.15;;;16.90;99.90;;;;;;5010872;28;20034;-46
2023/08/08 11:30:33;;;;;;;5.28;2.25;;;16.70;99.90;;;;;;5010900;28;20053;-50
2023/08/08 11:33:00;;;;;;;6.22;2.70;;;16.80;99.90;;;;;;5010370;28;20034;-46
2023/08/08 11:35:27;;;;;;;6.28;2.00;;;16.90;99.90;;;;;;5010531;28;20026;-46
2023/08/08 11:37:53;;;;;;;2.97;1.70;;;17.50;99.90;;;;;;5010582;28;20511;-47
2023/08/08 11:40:20;;;;;;;2.55;1.60;;;19.30;99.90;;;;;;5010755;28;20022;-47
2023/08/08 11:42:46;;;;;;;3.30;1.73;;;21.10;99.90;;;;;;4992832;28;20323;-46
2023/08/08 11:45:12;;;;;;;2.13;1.33;;;22.70;99.10;;;;;;5010487;28;20018;-48
2023/08/08 11:47:39;;;;;;;1.70;1.10;;;23.90;96.30;;;;;;5010769;28;20026;-46
2023/08/08 11:50:06;;;;;;;2.03;1.48;;;24.70;94.20;;;;;;5010812;28;20421;-49
2023/08/08 11:52:33;;;;;;;3.47;1.50;;;25.20;93.10;;;;;;5010610;28;20037;-49
2023/08/08 11:55:02;;;;;;;4.88;2.28;;;25.50;92.40;;;;;;4992380;28;20033;-47
2023/08/08 11:57:28;;;;;;;4.70;1.92;;;26.00;90.10;;;;;;5010501;28;20404;-48
2023/08/08 11:59:54;;;;;;;7.32;1.88;;;25.50;91.00;;;;;;5010393;28;20014;-50
2023/08/08 12:02:19;;;;;;;2.75;2.00;;;26.10;91.10;;;;;;5010333;28;20046;-46
2023/08/08 12:04:46;;;;;;;3.65;2.05;;;26.30;89.80;;;;;;5009964;28;20061;-48
2023/08/08 12:07:12;;;;;;;4.65;2.33;;;26.70;91.00;;;;;;5010397;28;20032;-47
2023/08/08 12:09:38;;;;;;;4.30;1.50;;;26.30;88.00;;;;;;4992934;28;20030;-49
2023/08/08 12:12:05;;;;;;;3.03;1.70;;;26.00;90.80;;;;;;5010543;28;20029;-47
2023/08/08 12:14:35;;;;;;;4.88;1.90;;;26.10;87.60;;;;;;5009891;28;20022;-48
2023/08/08 12:17:02;;;;;;;3.70;1.73;;;25.90;89.40;;;;;;5010244;28;20041;-48
2023/08/08 12:19:28;;;;;;;5.00;1.70;;;25.90;88.00;;;;;;4992691;28;20053;-50
2023/08/08 12:21:54;;;;;;;6.28;2.08;;;26.00;86.50;;;;;;5010229;28;20388;-49
2023/08/08 12:24:19;;;;;;;4.03;1.88;;;25.80;84.80;;;;;;5009779;28;20029;-49
2023/08/08 12:26:45;;;;;;;4.35;1.90;;;25.60;83.90;;;;;;5010173;28;20029;-49
2023/08/08 12:29:11;;;;;;;4.25;2.65;;;25.60;84.20;;;;;;5010223;28;20080;-47
2023/08/08 12:31:37;;;;;;;4.63;2.80;;;25.30;86.00;;;;;;5010272;28;20029;-46
2023/08/08 12:34:03;;;;;;;3.63;2.47;;;24.90;87.00;;;;;;5009665;28;20045;-47
2023/08/08 12:36:29;;;;;;;5.18;2.45;;;24.70;86.50;;;;;;5010023;28;20029;-48
2023/08/08 12:38:54;;;;;;;5.47;2.60;;;24.50;88.00;;;;;;4992403;28;20088;-48
2023/08/08 12:41:20;;;;;;;6.75;2.25;;;24.60;87.50;;;;;;5010657;28;20080;-46